sensor_id;sensor_type;location;lat;lon;timestamp;temperature;humidity
67769;DHT22;54569;52.018;5.584;2024-03-06T00:00:57;6.70;90.30
67769;DHT22;54569;52.018;5.584;2024-03-06T00:03:23;6.60;90.20
67769;DHT22;54569;52.018;5.584;2024-03-06T00:05:49;6.60;90.30
67769;DHT22;54569;52.018;5.584;2024-03-06T00:08:15;6.60;90.30
67769;DHT22;54569;52.018;5.584;2024-03-06T00:10:41;6.60;90.30
67769;DHT22;54569;52.018;5.584;2024-03-06T00:13:07;6.50;90.40
67769;DHT22;54569;52.018;5.584;2024-03-06T00:15:33;6.50;90.40
67769;DHT22;54569;52.018;5.584;2024-03-06T00:17:59;6.50;90.50
67769;DHT22;54569;52.018;5.584;2024-03-06T00:20:26;6.50;90.50
67769;DHT22;54569;52.018;5.584;2024-03-06T00:22:52;6.50;90.50
67769;DHT22;54569;52.018;5.584;2024-03-06T00:25:17;6.50;90.50
67769;DHT22;54569;52.018;5.584;2024-03-06T00:27:43;6.50;90.50
67769;DHT22;54569;52.018;5.584;2024-03-06T00:30:09;6.60;90.50
67769;DHT22;54569;52.018;5.584;2024-03-06T00:32:35;6.60;90.50
67769;DHT22;54569;52.018;5.584;2024-03-06T00:35:01;6.60;90.50
67769;DHT22;54569;52.018;5.584;2024-03-06T00:37:27;6.60;90.40
67769;DHT22;54569;52.018;5.584;2024-03-06T00:39:53;6.50;90.40
67769;DHT22;54569;52.018;5.584;2024-03-06T00:42:18;6.50;90.50
67769;DHT22;54569;52.018;5.584;2024-03-06T00:44:44;6.50;90.50
67769;DHT22;54569;52.018;5.584;2024-03-06T00:47:10;6.50;90.60
67769;DHT22;54569;52.018;5.584;2024-03-06T00:49:35;6.50;90.60
67769;DHT22;54569;52.018;5.584;2024-03-06T00:52:01;6.50;90.60
67769;DHT22;54569;52.018;5.584;2024-03-06T00:54:27;6.50;90.60
67769;DHT22;54569;52.018;5.584;2024-03-06T00:56:52;6.50;90.60
67769;DHT22;54569;52.018;5.584;2024-03-06T00:59:18;6.40;90.60
67769;DHT22;54569;52.018;5.584;2024-03-06T01:01:44;6.40;90.60
67769;DHT22;54569;52.018;5.584;2024-03-06T01:04:10;6.40;90.60
67769;DHT22;54569;52.018;5.584;2024-03-06T01:06:36;6.40;90.70
67769;DHT22;54569;52.018;5.584;2024-03-06T01:09:02;6.30;90.70
67769;DHT22;54569;52.018;5.584;2024-03-06T01:11:28;6.30;90.70
67769;DHT22;54569;52.018;5.584;2024-03-06T01:13:54;6.30;90.70
67769;DHT22;54569;52.018;5.584;2024-03-06T01:16:19;6.30;90.70
67769;DHT22;54569;52.018;5.584;2024-03-06T01:18:46;6.30;90.70
67769;DHT22;54569;52.018;5.584;2024-03-06T01:21:12;6.30;90.80
67769;DHT22;54569;52.018;5.584;2024-03-06T01:23:37;6.20;90.80
67769;DHT22;54569;52.018;5.584;2024-03-06T01:26:03;6.20;90.80
67769;DHT22;54569;52.018;5.584;2024-03-06T01:28:29;6.20;90.80
67769;DHT22;54569;52.018;5.584;2024-03-06T01:30:55;6.20;90.90
67769;DHT22;54569;52.018;5.584;2024-03-06T01:33:20;6.20;90.90
67769;DHT22;54569;52.018;5.584;2024-03-06T01:35:47;6.10;90.90
67769;DHT22;54569;52.018;5.584;2024-03-06T01:38:13;6.10;90.90
67769;DHT22;54569;52.018;5.584;2024-03-06T01:40:43;6.10;90.90
67769;DHT22;54569;52.018;5.584;2024-03-06T01:43:21;6.00;90.90
67769;DHT22;54569;52.018;5.584;2024-03-06T01:45:48;6.00;91.00
67769;DHT22;54569;52.018;5.584;2024-03-06T01:48:18;6.00;91.00
67769;DHT22;54569;52.018;5.584;2024-03-06T01:50:46;5.90;91.00
67769;DHT22;54569;52.018;5.584;2024-03-06T01:53:13;5.80;91.00
67769;DHT22;54569;52.018;5.584;2024-03-06T01:55:39;5.80;91.00
67769;DHT22;54569;52.018;5.584;2024-03-06T01:58:06;5.80;91.10
67769;DHT22;54569;52.018;5.584;2024-03-06T02:00:32;5.80;91.10
67769;DHT22;54569;52.018;5.584;2024-03-06T02:03:00;5.70;91.20
67769;DHT22;54569;52.018;5.584;2024-03-06T02:05:27;5.70;91.20
67769;DHT22;54569;52.018;5.584;2024-03-06T02:07:54;5.70;91.20
67769;DHT22;54569;52.018;5.584;2024-03-06T02:10:19;5.70;91.30
67769;DHT22;54569;52.018;5.584;2024-03-06T02:12:45;5.70;91.30
67769;DHT22;54569;52.018;5.584;2024-03-06T02:15:11;5.70;91.30
67769;DHT22;54569;52.018;5.584;2024-03-06T02:17:38;5.60;91.20
67769;DHT22;54569;52.018;5.584;2024-03-06T02:20:04;5.60;91.20
67769;DHT22;54569;52.018;5.584;2024-03-06T02:22:32;5.60;91.30
67769;DHT22;54569;52.018;5.584;2024-03-06T02:24:58;5.50;91.20
67769;DHT22;54569;52.018;5.584;2024-03-06T02:27:24;5.50;91.20
67769;DHT22;54569;52.018;5.584;2024-03-06T02:29:49;5.50;91.20
67769;DHT22;54569;52.018;5.584;2024-03-06T02:32:15;5.40;91.20
67769;DHT22;54569;52.018;5.584;2024-03-06T02:34:43;5.40;91.30
67769;DHT22;54569;52.018;5.584;2024-03-06T02:37:09;5.40;91.30
67769;DHT22;54569;52.018;5.584;2024-03-06T02:39:35;5.40;91.40
67769;DHT22;54569;52.018;5.584;2024-03-06T02:42:01;5.40;91.40
67769;DHT22;54569;52.018;5.584;2024-03-06T02:44:27;5.40;91.40
67769;DHT22;54569;52.018;5.584;2024-03-06T02:46:52;5.40;91.50
67769;DHT22;54569;52.018;5.584;2024-03-06T02:49:18;5.30;91.40
67769;DHT22;54569;52.018;5.584;2024-03-06T02:51:44;5.30;91.50
67769;DHT22;54569;52.018;5.584;2024-03-06T02:54:10;5.30;91.50
67769;DHT22;54569;52.018;5.584;2024-03-06T02:56:36;5.20;91.40
67769;DHT22;54569;52.018;5.584;2024-03-06T02:59:02;5.20;91.30
67769;DHT22;54569;52.018;5.584;2024-03-06T03:01:29;5.10;91.50
67769;DHT22;54569;52.018;5.584;2024-03-06T03:03:55;5.10;91.50
67769;DHT22;54569;52.018;5.584;2024-03-06T03:06:21;5.00;91.60
67769;DHT22;54569;52.018;5.584;2024-03-06T03:08:49;5.00;91.60
67769;DHT22;54569;52.018;5.584;2024-03-06T03:11:15;5.00;91.60
67769;DHT22;54569;52.018;5.584;2024-03-06T03:13:41;5.00;91.60
67769;DHT22;54569;52.018;5.584;2024-03-06T03:16:18;4.90;91.60
67769;DHT22;54569;52.018;5.584;2024-03-06T03:18:46;4.90;91.60
67769;DHT22;54569;52.018;5.584;2024-03-06T03:21:12;4.80;91.60
67769;DHT22;54569;52.018;5.584;2024-03-06T03:23:39;4.80;91.90
67769;DHT22;54569;52.018;5.584;2024-03-06T03:26:07;4.80;91.80
67769;DHT22;54569;52.018;5.584;2024-03-06T03:28:33;4.80;91.80
67769;DHT22;54569;52.018;5.584;2024-03-06T03:30:59;4.80;91.90
67769;DHT22;54569;52.018;5.584;2024-03-06T03:33:24;4.70;91.80
67769;DHT22;54569;52.018;5.584;2024-03-06T03:35:50;4.70;91.80
67769;DHT22;54569;52.018;5.584;2024-03-06T03:38:16;4.70;91.90
67769;DHT22;54569;52.018;5.584;2024-03-06T03:40:42;4.70;91.90
67769;DHT22;54569;52.018;5.584;2024-03-06T03:43:08;4.70;91.90
67769;DHT22;54569;52.018;5.584;2024-03-06T03:45:34;4.70;91.90
67769;DHT22;54569;52.018;5.584;2024-03-06T03:48:01;4.70;91.90
67769;DHT22;54569;52.018;5.584;2024-03-06T03:50:31;4.60;91.90
67769;DHT22;54569;52.018;5.584;2024-03-06T03:52:57;4.60;91.90
67769;DHT22;54569;52.018;5.584;2024-03-06T03:55:26;4.60;91.90
67769;DHT22;54569;52.018;5.584;2024-03-06T03:57:52;4.50;91.80
67769;DHT22;54569;52.018;5.584;2024-03-06T04:00:18;4.50;91.90
67769;DHT22;54569;52.018;5.584;2024-03-06T04:02:44;4.50;91.90
67769;DHT22;54569;52.018;5.584;2024-03-06T04:05:10;4.50;91.90
67769;DHT22;54569;52.018;5.584;2024-03-06T04:07:36;4.50;91.90
67769;DHT22;54569;52.018;5.584;2024-03-06T04:10:03;4.50;91.90
67769;DHT22;54569;52.018;5.584;2024-03-06T04:12:29;4.50;91.90
67769;DHT22;54569;52.018;5.584;2024-03-06T04:14:56;4.40;91.90
67769;DHT22;54569;52.018;5.584;2024-03-06T04:17:22;4.40;91.90
67769;DHT22;54569;52.018;5.584;2024-03-06T04:19:48;4.40;91.90
67769;DHT22;54569;52.018;5.584;2024-03-06T04:22:14;4.40;91.90
67769;DHT22;54569;52.018;5.584;2024-03-06T04:24:43;4.40;91.90
67769;DHT22;54569;52.018;5.584;2024-03-06T04:27:10;4.40;91.90
67769;DHT22;54569;52.018;5.584;2024-03-06T04:29:36;4.30;91.90
67769;DHT22;54569;52.018;5.584;2024-03-06T04:32:02;4.30;91.90
67769;DHT22;54569;52.018;5.584;2024-03-06T04:34:27;4.40;92.00
67769;DHT22;54569;52.018;5.584;2024-03-06T04:36:53;4.30;91.90
67769;DHT22;54569;52.018;5.584;2024-03-06T04:39:19;4.30;92.00
67769;DHT22;54569;52.018;5.584;2024-03-06T04:41:45;4.30;92.00
67769;DHT22;54569;52.018;5.584;2024-03-06T04:44:10;4.20;92.00
67769;DHT22;54569;52.018;5.584;2024-03-06T04:46:36;4.20;92.00
67769;DHT22;54569;52.018;5.584;2024-03-06T04:49:02;4.20;92.30
67769;DHT22;54569;52.018;5.584;2024-03-06T04:51:28;4.20;92.10
67769;DHT22;54569;52.018;5.584;2024-03-06T04:53:54;4.20;92.10
67769;DHT22;54569;52.018;5.584;2024-03-06T04:56:20;4.20;92.20
67769;DHT22;54569;52.018;5.584;2024-03-06T04:58:47;4.10;92.20
67769;DHT22;54569;52.018;5.584;2024-03-06T05:01:13;4.10;92.30
67769;DHT22;54569;52.018;5.584;2024-03-06T05:03:39;4.10;92.30
67769;DHT22;54569;52.018;5.584;2024-03-06T05:06:05;4.00;92.40
67769;DHT22;54569;52.018;5.584;2024-03-06T05:08:31;4.00;92.50
67769;DHT22;54569;52.018;5.584;2024-03-06T05:11:00;4.00;92.60
67769;DHT22;54569;52.018;5.584;2024-03-06T05:13:26;4.00;92.70
67769;DHT22;54569;52.018;5.584;2024-03-06T05:15:52;4.00;92.70
67769;DHT22;54569;52.018;5.584;2024-03-06T05:18:19;4.00;92.70
67769;DHT22;54569;52.018;5.584;2024-03-06T05:20:46;4.10;92.80
67769;DHT22;54569;52.018;5.584;2024-03-06T05:23:12;4.10;92.80
67769;DHT22;54569;52.018;5.584;2024-03-06T05:25:38;4.10;92.80
67769;DHT22;54569;52.018;5.584;2024-03-06T05:28:04;4.00;92.70
67769;DHT22;54569;52.018;5.584;2024-03-06T05:30:30;4.00;92.80
67769;DHT22;54569;52.018;5.584;2024-03-06T05:32:56;4.00;92.70
67769;DHT22;54569;52.018;5.584;2024-03-06T05:35:22;3.90;92.80
67769;DHT22;54569;52.018;5.584;2024-03-06T05:37:48;3.90;92.80
67769;DHT22;54569;52.018;5.584;2024-03-06T05:40:13;3.90;92.90
67769;DHT22;54569;52.018;5.584;2024-03-06T05:42:40;3.90;93.00
67769;DHT22;54569;52.018;5.584;2024-03-06T05:45:06;3.90;93.10
67769;DHT22;54569;52.018;5.584;2024-03-06T05:47:38;3.80;93.00
67769;DHT22;54569;52.018;5.584;2024-03-06T05:50:08;3.80;93.00
67769;DHT22;54569;52.018;5.584;2024-03-06T05:52:36;3.70;93.10
67769;DHT22;54569;52.018;5.584;2024-03-06T05:55:02;3.70;93.20
67769;DHT22;54569;52.018;5.584;2024-03-06T05:57:28;3.80;93.30
67769;DHT22;54569;52.018;5.584;2024-03-06T05:59:54;3.70;93.10
67769;DHT22;54569;52.018;5.584;2024-03-06T06:02:20;3.70;93.20
67769;DHT22;54569;52.018;5.584;2024-03-06T06:04:46;3.70;93.20
67769;DHT22;54569;52.018;5.584;2024-03-06T06:07:12;3.70;93.20
67769;DHT22;54569;52.018;5.584;2024-03-06T06:09:37;3.60;93.20
67769;DHT22;54569;52.018;5.584;2024-03-06T06:12:03;3.60;93.40
67769;DHT22;54569;52.018;5.584;2024-03-06T06:14:29;3.60;93.40
67769;DHT22;54569;52.018;5.584;2024-03-06T06:16:59;3.60;93.40
67769;DHT22;54569;52.018;5.584;2024-03-06T06:19:24;3.60;93.30
67769;DHT22;54569;52.018;5.584;2024-03-06T06:21:54;3.60;93.40
67769;DHT22;54569;52.018;5.584;2024-03-06T06:24:20;3.60;93.40
67769;DHT22;54569;52.018;5.584;2024-03-06T06:26:46;3.60;93.60
67769;DHT22;54569;52.018;5.584;2024-03-06T06:29:11;3.60;93.60
67769;DHT22;54569;52.018;5.584;2024-03-06T06:31:37;3.70;93.60
67769;DHT22;54569;52.018;5.584;2024-03-06T06:34:03;3.70;93.60
67769;DHT22;54569;52.018;5.584;2024-03-06T06:36:29;3.70;93.50
67769;DHT22;54569;52.018;5.584;2024-03-06T06:38:55;3.70;93.50
67769;DHT22;54569;52.018;5.584;2024-03-06T06:41:21;3.70;93.60
67769;DHT22;54569;52.018;5.584;2024-03-06T06:43:46;3.70;93.70
67769;DHT22;54569;52.018;5.584;2024-03-06T06:46:12;3.70;93.80
67769;DHT22;54569;52.018;5.584;2024-03-06T06:48:38;3.80;93.70
67769;DHT22;54569;52.018;5.584;2024-03-06T06:51:04;3.80;93.80
67769;DHT22;54569;52.018;5.584;2024-03-06T06:53:30;3.80;93.80
67769;DHT22;54569;52.018;5.584;2024-03-06T06:55:56;3.90;94.00
67769;DHT22;54569;52.018;5.584;2024-03-06T06:58:23;3.90;93.80
67769;DHT22;54569;52.018;5.584;2024-03-06T07:00:49;4.00;93.80
67769;DHT22;54569;52.018;5.584;2024-03-06T07:03:14;4.00;93.80
67769;DHT22;54569;52.018;5.584;2024-03-06T07:05:41;4.10;93.80
67769;DHT22;54569;52.018;5.584;2024-03-06T07:08:09;4.20;93.70
67769;DHT22;54569;52.018;5.584;2024-03-06T07:10:35;4.30;93.80
67769;DHT22;54569;52.018;5.584;2024-03-06T07:13:02;4.30;93.70
67769;DHT22;54569;52.018;5.584;2024-03-06T07:15:28;4.40;93.70
67769;DHT22;54569;52.018;5.584;2024-03-06T07:17:54;4.50;93.90
67769;DHT22;54569;52.018;5.584;2024-03-06T07:20:20;4.60;94.00
67769;DHT22;54569;52.018;5.584;2024-03-06T07:22:46;4.60;93.90
67769;DHT22;54569;52.018;5.584;2024-03-06T07:25:12;4.70;93.90
67769;DHT22;54569;52.018;5.584;2024-03-06T07:27:38;4.70;93.90
67769;DHT22;54569;52.018;5.584;2024-03-06T07:30:04;4.80;93.90
67769;DHT22;54569;52.018;5.584;2024-03-06T07:32:31;4.80;94.30
67769;DHT22;54569;52.018;5.584;2024-03-06T07:34:57;4.80;93.80
67769;DHT22;54569;52.018;5.584;2024-03-06T07:37:24;4.80;93.70
67769;DHT22;54569;52.018;5.584;2024-03-06T07:39:49;4.80;94.30
67769;DHT22;54569;52.018;5.584;2024-03-06T07:42:15;4.80;94.40
67769;DHT22;54569;52.018;5.584;2024-03-06T07:44:41;4.80;94.50
67769;DHT22;54569;52.018;5.584;2024-03-06T07:47:06;4.80;94.60
67769;DHT22;54569;52.018;5.584;2024-03-06T07:49:33;4.90;94.60
67769;DHT22;54569;52.018;5.584;2024-03-06T07:51:58;4.90;94.50
67769;DHT22;54569;52.018;5.584;2024-03-06T07:54:24;5.00;94.90
67769;DHT22;54569;52.018;5.584;2024-03-06T07:56:50;5.00;95.10
67769;DHT22;54569;52.018;5.584;2024-03-06T07:59:16;5.00;95.10
67769;DHT22;54569;52.018;5.584;2024-03-06T08:01:43;5.10;94.40
67769;DHT22;54569;52.018;5.584;2024-03-06T08:04:09;5.10;94.60
67769;DHT22;54569;52.018;5.584;2024-03-06T08:06:35;5.10;94.90
67769;DHT22;54569;52.018;5.584;2024-03-06T08:09:03;5.10;95.40
67769;DHT22;54569;52.018;5.584;2024-03-06T08:11:28;5.20;95.30
67769;DHT22;54569;52.018;5.584;2024-03-06T08:13:58;5.20;95.20
67769;DHT22;54569;52.018;5.584;2024-03-06T08:16:24;5.30;95.10
67769;DHT22;54569;52.018;5.584;2024-03-06T08:18:50;5.30;94.80
67769;DHT22;54569;52.018;5.584;2024-03-06T08:21:16;5.30;95.00
67769;DHT22;54569;52.018;5.584;2024-03-06T08:23:42;5.30;95.40
67769;DHT22;54569;52.018;5.584;2024-03-06T08:26:08;5.40;95.30
67769;DHT22;54569;52.018;5.584;2024-03-06T08:28:34;5.40;95.20
67769;DHT22;54569;52.018;5.584;2024-03-06T08:31:00;5.40;94.90
67769;DHT22;54569;52.018;5.584;2024-03-06T08:33:26;5.50;95.00
67769;DHT22;54569;52.018;5.584;2024-03-06T08:35:52;5.50;95.00
67769;DHT22;54569;52.018;5.584;2024-03-06T08:38:17;5.50;95.50
67769;DHT22;54569;52.018;5.584;2024-03-06T08:40:43;5.50;95.00
67769;DHT22;54569;52.018;5.584;2024-03-06T08:43:12;5.50;95.30
67769;DHT22;54569;52.018;5.584;2024-03-06T08:45:38;5.60;95.50
67769;DHT22;54569;52.018;5.584;2024-03-06T08:48:04;5.60;95.30
67769;DHT22;54569;52.018;5.584;2024-03-06T08:50:31;5.60;95.20
67769;DHT22;54569;52.018;5.584;2024-03-06T08:52:57;5.60;95.60
67769;DHT22;54569;52.018;5.584;2024-03-06T08:55:22;5.70;95.70
67769;DHT22;54569;52.018;5.584;2024-03-06T08:57:48;5.70;95.40
67769;DHT22;54569;52.018;5.584;2024-03-06T09:00:16;5.80;95.70
67769;DHT22;54569;52.018;5.584;2024-03-06T09:02:43;5.80;95.80
67769;DHT22;54569;52.018;5.584;2024-03-06T09:05:09;5.80;95.50
67769;DHT22;54569;52.018;5.584;2024-03-06T09:07:39;5.90;95.80
67769;DHT22;54569;52.018;5.584;2024-03-06T09:10:11;5.90;96.10
67769;DHT22;54569;52.018;5.584;2024-03-06T09:12:37;5.90;95.10
67769;DHT22;54569;52.018;5.584;2024-03-06T09:15:04;5.90;95.20
67769;DHT22;54569;52.018;5.584;2024-03-06T09:17:30;6.00;95.50
67769;DHT22;54569;52.018;5.584;2024-03-06T09:19:56;6.00;95.80
67769;DHT22;54569;52.018;5.584;2024-03-06T09:22:22;6.10;95.90
67769;DHT22;54569;52.018;5.584;2024-03-06T09:24:48;6.20;95.80
67769;DHT22;54569;52.018;5.584;2024-03-06T09:27:17;6.20;95.50
67769;DHT22;54569;52.018;5.584;2024-03-06T09:29:43;6.30;95.80
67769;DHT22;54569;52.018;5.584;2024-03-06T09:32:10;6.30;95.30
67769;DHT22;54569;52.018;5.584;2024-03-06T09:34:38;6.40;94.70
67769;DHT22;54569;52.018;5.584;2024-03-06T09:37:04;6.40;94.80
67769;DHT22;54569;52.018;5.584;2024-03-06T09:39:30;6.50;95.50
67769;DHT22;54569;52.018;5.584;2024-03-06T09:41:56;6.50;95.70
67769;DHT22;54569;52.018;5.584;2024-03-06T09:44:22;6.70;95.80
67769;DHT22;54569;52.018;5.584;2024-03-06T09:46:49;6.80;95.20
67769;DHT22;54569;52.018;5.584;2024-03-06T09:49:18;6.90;95.80
67769;DHT22;54569;52.018;5.584;2024-03-06T09:51:48;7.00;95.30
67769;DHT22;54569;52.018;5.584;2024-03-06T09:54:19;7.20;95.20
67769;DHT22;54569;52.018;5.584;2024-03-06T09:56:48;7.20;95.40
67769;DHT22;54569;52.018;5.584;2024-03-06T09:59:14;7.30;95.20
67769;DHT22;54569;52.018;5.584;2024-03-06T10:06:52;7.50;94.80
67769;DHT22;54569;52.018;5.584;2024-03-06T10:09:20;7.60;95.00
67769;DHT22;54569;52.018;5.584;2024-03-06T10:11:46;7.70;95.00
67769;DHT22;54569;52.018;5.584;2024-03-06T10:14:13;7.70;94.80
67769;DHT22;54569;52.018;5.584;2024-03-06T10:17:11;7.80;94.80
67769;DHT22;54569;52.018;5.584;2024-03-06T10:19:44;7.90;95.20
67769;DHT22;54569;52.018;5.584;2024-03-06T10:22:15;8.00;95.10
67769;DHT22;54569;52.018;5.584;2024-03-06T10:24:41;8.10;95.20
67769;DHT22;54569;52.018;5.584;2024-03-06T10:27:07;8.30;94.80
67769;DHT22;54569;52.018;5.584;2024-03-06T10:29:33;8.40;94.70
67769;DHT22;54569;52.018;5.584;2024-03-06T10:32:01;8.40;94.50
67769;DHT22;54569;52.018;5.584;2024-03-06T10:34:28;8.50;94.40
67769;DHT22;54569;52.018;5.584;2024-03-06T10:37:03;8.50;94.10
67769;DHT22;54569;52.018;5.584;2024-03-06T10:39:42;8.50;94.30
67769;DHT22;54569;52.018;5.584;2024-03-06T10:42:09;8.50;94.00
67769;DHT22;54569;52.018;5.584;2024-03-06T10:44:46;8.50;93.50
67769;DHT22;54569;52.018;5.584;2024-03-06T10:47:15;8.60;94.00
67769;DHT22;54569;52.018;5.584;2024-03-06T10:49:41;8.60;93.90
67769;DHT22;54569;52.018;5.584;2024-03-06T10:52:09;8.70;94.00
67769;DHT22;54569;52.018;5.584;2024-03-06T10:54:35;8.80;93.70
67769;DHT22;54569;52.018;5.584;2024-03-06T10:57:04;8.80;93.60
67769;DHT22;54569;52.018;5.584;2024-03-06T10:59:31;8.80;93.50
67769;DHT22;54569;52.018;5.584;2024-03-06T11:01:58;8.90;93.60
67769;DHT22;54569;52.018;5.584;2024-03-06T11:04:28;9.00;93.70
67769;DHT22;54569;52.018;5.584;2024-03-06T11:06:59;9.10;93.80
67769;DHT22;54569;52.018;5.584;2024-03-06T11:09:26;9.20;93.50
67769;DHT22;54569;52.018;5.584;2024-03-06T11:11:53;9.30;93.50
67769;DHT22;54569;52.018;5.584;2024-03-06T11:14:21;9.40;93.30
67769;DHT22;54569;52.018;5.584;2024-03-06T11:19:27;9.40;93.00
67769;DHT22;54569;52.018;5.584;2024-03-06T11:21:53;9.60;93.00
67769;DHT22;54569;52.018;5.584;2024-03-06T11:24:20;10.60;94.80
67769;DHT22;54569;52.018;5.584;2024-03-06T11:26:56;12.30;93.50
67769;DHT22;54569;52.018;5.584;2024-03-06T11:29:24;14.00;88.60
67769;DHT22;54569;52.018;5.584;2024-03-06T11:34:29;14.70;80.70
67769;DHT22;54569;52.018;5.584;2024-03-06T11:37:02;15.40;80.80
67769;DHT22;54569;52.018;5.584;2024-03-06T11:39:33;17.00;77.60
67769;DHT22;54569;52.018;5.584;2024-03-06T11:42:00;17.20;76.80
67769;DHT22;54569;52.018;5.584;2024-03-06T11:44:27;18.30;74.80
67769;DHT22;54569;52.018;5.584;2024-03-06T11:47:01;18.60;72.30
67769;DHT22;54569;52.018;5.584;2024-03-06T11:49:30;18.10;72.30
67769;DHT22;54569;52.018;5.584;2024-03-06T11:52:04;17.50;73.60
67769;DHT22;54569;52.018;5.584;2024-03-06T11:54:31;16.90;74.40
67769;DHT22;54569;52.018;5.584;2024-03-06T11:57:00;16.80;76.30
67769;DHT22;54569;52.018;5.584;2024-03-06T11:59:31;18.50;75.20
67769;DHT22;54569;52.018;5.584;2024-03-06T12:01:59;20.40;71.30
67769;DHT22;54569;52.018;5.584;2024-03-06T12:04:28;22.20;67.70
67769;DHT22;54569;52.018;5.584;2024-03-06T12:06:58;23.70;64.70
67769;DHT22;54569;52.018;5.584;2024-03-06T12:09:25;24.70;62.10
67769;DHT22;54569;52.018;5.584;2024-03-06T12:11:52;25.30;62.00
67769;DHT22;54569;52.018;5.584;2024-03-06T12:14:19;25.90;60.60
67769;DHT22;54569;52.018;5.584;2024-03-06T12:16:59;26.50;59.80
67769;DHT22;54569;52.018;5.584;2024-03-06T12:19:26;27.10;57.20
67769;DHT22;54569;52.018;5.584;2024-03-06T12:21:53;27.30;58.00
67769;DHT22;54569;52.018;5.584;2024-03-06T12:24:19;27.50;57.70
67769;DHT22;54569;52.018;5.584;2024-03-06T12:26:46;27.40;57.30
67769;DHT22;54569;52.018;5.584;2024-03-06T12:29:18;27.10;58.10
67769;DHT22;54569;52.018;5.584;2024-03-06T12:31:45;27.00;56.90
67769;DHT22;54569;52.018;5.584;2024-03-06T12:34:14;26.70;56.70
67769;DHT22;54569;52.018;5.584;2024-03-06T12:36:43;26.00;57.00
67769;DHT22;54569;52.018;5.584;2024-03-06T12:39:09;24.70;59.80
67769;DHT22;54569;52.018;5.584;2024-03-06T12:41:42;23.30;61.10
67769;DHT22;54569;52.018;5.584;2024-03-06T12:44:07;21.80;62.90
67769;DHT22;54569;52.018;5.584;2024-03-06T12:46:33;20.50;65.50
67769;DHT22;54569;52.018;5.584;2024-03-06T12:49:00;19.60;66.50
67769;DHT22;54569;52.018;5.584;2024-03-06T12:51:26;19.10;67.30
67769;DHT22;54569;52.018;5.584;2024-03-06T12:53:51;18.60;67.80
67769;DHT22;54569;52.018;5.584;2024-03-06T12:56:18;18.30;68.10
67769;DHT22;54569;52.018;5.584;2024-03-06T12:58:45;17.90;68.90
67769;DHT22;54569;52.018;5.584;2024-03-06T13:01:11;17.50;69.80
67769;DHT22;54569;52.018;5.584;2024-03-06T13:03:37;17.30;69.40
67769;DHT22;54569;52.018;5.584;2024-03-06T13:06:04;17.00;69.30
67769;DHT22;54569;52.018;5.584;2024-03-06T13:08:30;16.60;69.70
67769;DHT22;54569;52.018;5.584;2024-03-06T13:10:56;16.50;70.00
67769;DHT22;54569;52.018;5.584;2024-03-06T13:13:22;16.30;69.90
67769;DHT22;54569;52.018;5.584;2024-03-06T13:15:51;16.20;69.80
67769;DHT22;54569;52.018;5.584;2024-03-06T13:18:17;16.10;69.80
67769;DHT22;54569;52.018;5.584;2024-03-06T13:20:44;16.00;69.70
67769;DHT22;54569;52.018;5.584;2024-03-06T13:23:11;15.70;69.50
67769;DHT22;54569;52.018;5.584;2024-03-06T13:25:36;15.60;69.70
67769;DHT22;54569;52.018;5.584;2024-03-06T13:28:03;15.60;69.60
67769;DHT22;54569;52.018;5.584;2024-03-06T13:30:29;15.50;69.40
67769;DHT22;54569;52.018;5.584;2024-03-06T13:32:55;15.40;69.30
67769;DHT22;54569;52.018;5.584;2024-03-06T13:35:20;15.30;69.00
67769;DHT22;54569;52.018;5.584;2024-03-06T13:37:48;15.20;69.10
67769;DHT22;54569;52.018;5.584;2024-03-06T13:40:15;15.20;69.10
67769;DHT22;54569;52.018;5.584;2024-03-06T13:42:42;15.20;69.00
67769;DHT22;54569;52.018;5.584;2024-03-06T13:45:09;15.10;68.90
67769;DHT22;54569;52.018;5.584;2024-03-06T13:47:39;15.00;68.70
67769;DHT22;54569;52.018;5.584;2024-03-06T13:50:08;14.80;68.90
67769;DHT22;54569;52.018;5.584;2024-03-06T13:52:34;14.60;68.90
67769;DHT22;54569;52.018;5.584;2024-03-06T13:54:59;14.50;69.00
67769;DHT22;54569;52.018;5.584;2024-03-06T13:57:28;14.50;68.80
67769;DHT22;54569;52.018;5.584;2024-03-06T13:59:54;14.50;68.80
67769;DHT22;54569;52.018;5.584;2024-03-06T14:02:20;14.40;69.20
67769;DHT22;54569;52.018;5.584;2024-03-06T14:04:46;14.30;68.60
67769;DHT22;54569;52.018;5.584;2024-03-06T14:07:12;14.30;68.60
67769;DHT22;54569;52.018;5.584;2024-03-06T14:09:38;14.30;68.60
67769;DHT22;54569;52.018;5.584;2024-03-06T14:12:04;14.20;68.50
67769;DHT22;54569;52.018;5.584;2024-03-06T14:14:30;14.10;68.50
67769;DHT22;54569;52.018;5.584;2024-03-06T14:16:56;14.20;68.70
67769;DHT22;54569;52.018;5.584;2024-03-06T14:19:21;14.20;68.30
67769;DHT22;54569;52.018;5.584;2024-03-06T14:21:47;14.10;68.20
67769;DHT22;54569;52.018;5.584;2024-03-06T14:24:13;14.10;68.10
67769;DHT22;54569;52.018;5.584;2024-03-06T14:26:39;14.00;67.90
67769;DHT22;54569;52.018;5.584;2024-03-06T14:29:06;14.00;67.80
67769;DHT22;54569;52.018;5.584;2024-03-06T14:31:33;13.90;67.90
67769;DHT22;54569;52.018;5.584;2024-03-06T14:34:00;13.70;68.00
67769;DHT22;54569;52.018;5.584;2024-03-06T14:36:26;13.60;68.00
67769;DHT22;54569;52.018;5.584;2024-03-06T14:38:52;13.60;68.20
67769;DHT22;54569;52.018;5.584;2024-03-06T14:41:19;13.80;68.20
67769;DHT22;54569;52.018;5.584;2024-03-06T14:43:45;13.80;68.00
67769;DHT22;54569;52.018;5.584;2024-03-06T14:46:11;14.00;68.10
67769;DHT22;54569;52.018;5.584;2024-03-06T14:48:38;14.00;68.10
67769;DHT22;54569;52.018;5.584;2024-03-06T14:51:05;14.10;67.90
67769;DHT22;54569;52.018;5.584;2024-03-06T14:53:30;14.20;67.80
67769;DHT22;54569;52.018;5.584;2024-03-06T14:55:57;14.20;67.80
67769;DHT22;54569;52.018;5.584;2024-03-06T14:58:23;14.10;68.50
67769;DHT22;54569;52.018;5.584;2024-03-06T15:00:49;14.00;68.00
67769;DHT22;54569;52.018;5.584;2024-03-06T15:03:17;13.90;68.40
67769;DHT22;54569;52.018;5.584;2024-03-06T15:05:45;13.80;68.40
67769;DHT22;54569;52.018;5.584;2024-03-06T15:08:12;13.70;68.50
67769;DHT22;54569;52.018;5.584;2024-03-06T15:10:38;13.70;68.50
67769;DHT22;54569;52.018;5.584;2024-03-06T15:13:04;13.70;68.40
67769;DHT22;54569;52.018;5.584;2024-03-06T15:15:30;13.60;68.30
67769;DHT22;54569;52.018;5.584;2024-03-06T15:17:57;13.50;68.30
67769;DHT22;54569;52.018;5.584;2024-03-06T15:20:23;13.40;69.20
67769;DHT22;54569;52.018;5.584;2024-03-06T15:22:49;13.30;68.60
67769;DHT22;54569;52.018;5.584;2024-03-06T15:25:15;13.20;68.60
67769;DHT22;54569;52.018;5.584;2024-03-06T15:27:41;13.10;68.50
67769;DHT22;54569;52.018;5.584;2024-03-06T15:30:08;13.10;68.70
67769;DHT22;54569;52.018;5.584;2024-03-06T15:32:35;13.00;68.70
67769;DHT22;54569;52.018;5.584;2024-03-06T15:35:01;13.10;68.60
67769;DHT22;54569;52.018;5.584;2024-03-06T15:37:29;13.10;68.60
67769;DHT22;54569;52.018;5.584;2024-03-06T15:39:56;13.10;68.50
67769;DHT22;54569;52.018;5.584;2024-03-06T15:42:22;13.10;68.40
67769;DHT22;54569;52.018;5.584;2024-03-06T15:44:49;13.00;68.30
67769;DHT22;54569;52.018;5.584;2024-03-06T15:47:19;13.00;68.50
67769;DHT22;54569;52.018;5.584;2024-03-06T15:49:46;13.00;68.50